CheckWX is a tool to help pilots better visualize weather data.  It is not intended as a substitute for an official pre-flight weather briefing.

14:43:13 UTC

KAQX METAR
Allendale County Airport
Allendale, South Carolina, USA
Current

8 mins ago

KAQX 201435Z AUTO VRB05KT 10SM CLR 26/21 A3004 RMK AO2
Observed
May-20 @ 14:35 UTC
Wind
  • Variable at 5 KTS
Visibility
10 SM
Flight Rules
VFR
Cloud Levels
  • Clear skies
Temperature
26°C / 79°F
Dewpoint
21°C / 70°F
Humidity
74%
Altimeter
30.04" Hg
Pressure
1017.32 hPa
Previous

28 mins ago

KAQX 201415Z AUTO 00000KT 10SM SCT013 25/21 A3004 RMK AO2
Observed
May-20 @ 14:15 UTC
Visibility
10 SM
Flight Rules
VFR
Cloud Levels
  • Scattered at 1,300' AGL
Temperature
25°C / 77°F
Dewpoint
21°C / 70°F
Humidity
79%
Altimeter
30.04" Hg
Pressure
1017.32 hPa
Previous

48 mins ago

KAQX 201355Z AUTO 00000KT 10SM BKN013 25/21 A3005 RMK AO2
Observed
May-20 @ 13:55 UTC
Visibility
10 SM
Flight Rules
MVFR
Cloud Levels
  • Broken at 1,300' AGL
Temperature
25°C / 77°F
Dewpoint
21°C / 70°F
Humidity
79%
Altimeter
30.05" Hg
Pressure
1017.62 hPa